createdAt,value
2019-05-23T00:01:54.556Z,8.93
2019-05-23T00:05:11.481Z,14.90
2019-05-23T00:08:02.597Z,12.47
2019-05-23T00:10:55.989Z,11.90
2019-05-23T00:13:49.474Z,13.23
2019-05-23T00:16:23.493Z,10.63
2019-05-23T00:18:55.821Z,15.03
2019-05-23T00:21:26.630Z,10.83
2019-05-23T00:24:00.275Z,12.37
2019-05-23T00:26:31.401Z,11.57
2019-05-23T00:29:09.953Z,10.17
2019-05-23T00:31:54.345Z,9.47
2019-05-23T00:34:25.985Z,8.93
2019-05-23T00:36:56.456Z,9.83
2019-05-23T00:39:27.277Z,9.80
2019-05-23T00:41:58.144Z,12.63
2019-05-23T00:44:30.782Z,11.27
2019-05-23T00:47:01.848Z,7.87
2019-05-23T00:49:32.215Z,7.70
2019-05-23T00:52:04.054Z,7.93
2019-05-23T00:54:34.455Z,7.67
2019-05-23T00:57:06.658Z,9.00
2019-05-23T00:59:37.073Z,10.37
2019-05-23T01:02:09.456Z,9.07
2019-05-23T01:04:42.307Z,7.80
2019-05-23T01:07:14.710Z,11.23
2019-05-23T01:09:46.377Z,12.43
2019-05-23T01:12:18.235Z,10.23
2019-05-23T01:14:49.218Z,10.27
2019-05-23T01:17:22.759Z,13.57
2019-05-23T01:19:54.221Z,12.30
2019-05-23T01:22:25.351Z,11.07
2019-05-23T01:24:58.247Z,12.20
2019-05-23T01:27:30.508Z,12.10
2019-05-23T01:30:02.534Z,12.33
2019-05-23T01:32:39.940Z,8.57
2019-05-23T01:35:13.512Z,11.07
2019-05-23T01:37:45.112Z,18.30
2019-05-23T01:40:16.266Z,9.63
2019-05-23T01:42:47.466Z,12.37
2019-05-23T01:45:19.374Z,13.47
2019-05-23T01:47:50.367Z,11.70
2019-05-23T01:50:25.345Z,14.63
2019-05-23T01:52:56.810Z,9.73
2019-05-23T01:55:27.460Z,10.77
2019-05-23T01:57:59.566Z,11.17
2019-05-23T02:00:31.408Z,12.93
2019-05-23T02:03:01.889Z,12.03
2019-05-23T02:05:33.322Z,9.80
2019-05-23T02:08:04.354Z,14.67
2019-05-23T02:10:35.501Z,8.37
2019-05-23T02:13:07.251Z,9.60
2019-05-23T02:15:37.846Z,10.70
2019-05-23T02:18:10.088Z,8.87
2019-05-23T02:20:41.455Z,9.73
2019-05-23T02:23:19.843Z,10.00
2019-05-23T02:25:51.750Z,10.17
2019-05-23T02:28:23.809Z,8.97
2019-05-23T02:30:54.263Z,9.10
2019-05-23T02:33:25.222Z,14.37
2019-05-23T02:35:55.622Z,11.83
2019-05-23T02:38:57.824Z,9.70
2019-05-23T02:41:58.499Z,9.20
2019-05-23T02:44:31.829Z,10.53
2019-05-23T02:47:20.649Z,13.97
2019-05-23T02:49:52.055Z,11.87
2019-05-23T02:52:44.183Z,11.07
2019-05-23T02:55:23.311Z,10.23
2019-05-23T02:57:55.869Z,12.30
2019-05-23T03:01:03.556Z,10.50
2019-05-23T03:03:35.964Z,9.73
2019-05-23T03:06:12.900Z,11.17
2019-05-23T03:08:46.272Z,10.17
2019-05-23T03:11:36.679Z,9.57
2019-05-23T03:14:09.163Z,9.50
2019-05-23T03:16:42.504Z,11.93
2019-05-23T03:19:37.134Z,10.23
2019-05-23T03:22:28.294Z,9.60
2019-05-23T03:25:03.238Z,11.73
2019-05-23T03:27:39.886Z,11.57
2019-05-23T03:30:15.882Z,13.87
2019-05-23T03:32:49.049Z,10.70
2019-05-23T03:35:29.685Z,12.67
2019-05-23T03:38:01.621Z,17.13
2019-05-23T03:40:33.371Z,10.17
2019-05-23T03:43:05.313Z,16.67
2019-05-23T03:45:40.227Z,15.37
2019-05-23T03:48:11.721Z,13.90
2019-05-23T03:50:43.632Z,9.73
2019-05-23T03:53:15.073Z,13.20
2019-05-23T03:55:48.067Z,14.13
2019-05-23T03:58:21.377Z,11.83
2019-05-23T04:00:53.558Z,12.97
2019-05-23T04:03:26.747Z,13.10
2019-05-23T04:05:58.963Z,13.83
2019-05-23T04:08:30.282Z,16.27
2019-05-23T04:11:01.909Z,11.47
2019-05-23T04:13:32.627Z,12.43
2019-05-23T04:16:03.686Z,11.13
2019-05-23T04:18:35.393Z,13.57
2019-05-23T04:21:06.259Z,14.23
2019-05-23T04:23:36.761Z,12.60
2019-05-23T04:26:07.371Z,16.33
2019-05-23T04:28:38.074Z,12.60
2019-05-23T04:31:12.728Z,18.60
2019-05-23T04:33:40.996Z,15.70
2019-05-23T04:36:11.848Z,12.53
2019-05-23T04:38:43.259Z,17.40
2019-05-23T04:41:13.967Z,24.60
2019-05-23T04:43:44.555Z,30.43
2019-05-23T04:46:15.421Z,25.87
2019-05-23T04:48:46.043Z,21.73
2019-05-23T04:51:16.588Z,17.67
2019-05-23T04:53:47.320Z,16.63
2019-05-23T04:56:18.149Z,13.43
2019-05-23T04:58:49.165Z,16.80
2019-05-23T05:01:21.838Z,21.80
2019-05-23T05:03:52.828Z,25.57
2019-05-23T05:06:24.921Z,19.33
2019-05-23T05:08:56.922Z,17.50
2019-05-23T05:11:30.428Z,20.53
2019-05-23T05:14:00.107Z,20.07
2019-05-23T05:16:31.329Z,12.43
2019-05-23T05:19:01.885Z,12.57
2019-05-23T05:21:32.473Z,11.03
2019-05-23T05:24:02.999Z,9.37
2019-05-23T05:26:33.658Z,10.97
2019-05-23T05:29:05.308Z,13.80
2019-05-23T05:31:36.156Z,9.93
2019-05-23T05:34:06.693Z,10.70
2019-05-23T05:36:37.164Z,14.00
2019-05-23T05:39:09.361Z,18.53
2019-05-23T05:41:40.361Z,17.23
2019-05-23T05:44:11.729Z,14.20
2019-05-23T05:46:42.885Z,13.73
2019-05-23T05:49:13.919Z,13.33
2019-05-23T05:51:44.689Z,16.87
2019-05-23T05:54:15.771Z,26.43
2019-05-23T05:56:46.623Z,23.47
2019-05-23T05:59:17.000Z,12.40
2019-05-23T06:01:47.909Z,29.10
2019-05-23T06:04:18.461Z,33.17
2019-05-23T06:07:08.448Z,10.17
2019-05-23T06:09:38.864Z,9.10
2019-05-23T06:12:09.573Z,9.17
2019-05-23T06:14:40.143Z,8.03
2019-05-23T06:17:13.694Z,11.63
2019-05-23T06:19:44.135Z,8.27
2019-05-23T06:22:15.493Z,8.80
2019-05-23T06:24:52.358Z,7.50
2019-05-23T06:27:20.408Z,13.57
2019-05-23T06:29:50.871Z,11.83
2019-05-23T06:32:22.956Z,7.10
2019-05-23T06:34:55.304Z,8.97
2019-05-23T06:37:26.656Z,7.30
2019-05-23T06:39:57.994Z,13.33
2019-05-23T06:42:29.000Z,6.27
2019-05-23T06:44:59.775Z,13.37
2019-05-23T06:47:31.499Z,13.63
2019-05-23T06:50:02.076Z,9.17
2019-05-23T06:52:32.614Z,12.63
2019-05-23T06:55:03.031Z,10.30
2019-05-23T06:57:33.504Z,10.20
2019-05-23T07:00:04.303Z,10.23
2019-05-23T07:02:35.108Z,20.47
2019-05-23T07:05:06.461Z,16.43
2019-05-23T07:07:37.380Z,11.90
2019-05-23T07:10:08.950Z,11.03
2019-05-23T07:12:39.579Z,13.20
2019-05-23T07:15:10.840Z,11.07
2019-05-23T07:17:41.367Z,14.37
2019-05-23T07:20:12.951Z,18.60
2019-05-23T07:22:43.427Z,13.30
2019-05-23T07:25:14.427Z,7.07
2019-05-23T07:27:45.378Z,21.73
2019-05-23T07:30:20.552Z,20.97
2019-05-23T07:32:51.022Z,15.17
2019-05-23T07:35:21.918Z,14.90
2019-05-23T07:37:52.651Z,13.47
2019-05-23T07:40:24.837Z,26.93
2019-05-23T07:42:56.371Z,25.27
2019-05-23T07:45:39.764Z,27.53
2019-05-23T07:48:09.115Z,27.77
2019-05-23T07:50:39.674Z,7.93
2019-05-23T07:53:12.381Z,14.43
2019-05-23T07:55:45.780Z,7.17
2019-05-23T07:58:16.484Z,5.33
2019-05-23T08:00:52.467Z,7.03
2019-05-23T08:03:24.652Z,9.20
2019-05-23T08:05:55.251Z,7.77
2019-05-23T08:08:25.764Z,7.90
2019-05-23T08:10:56.448Z,17.43
2019-05-23T08:13:27.006Z,13.87
2019-05-23T08:15:57.670Z,6.10
2019-05-23T08:18:28.554Z,4.20
2019-05-23T08:20:59.069Z,15.43
2019-05-23T08:23:29.631Z,6.53
2019-05-23T08:26:00.091Z,11.03
2019-05-23T08:28:30.903Z,7.70
2019-05-23T08:31:01.363Z,15.10
2019-05-23T08:33:32.310Z,7.13
2019-05-23T08:36:03.440Z,6.10
2019-05-23T08:38:34.089Z,14.30
2019-05-23T08:41:05.743Z,18.60
2019-05-23T08:43:36.395Z,16.47
2019-05-23T08:46:08.034Z,8.27
2019-05-23T08:48:38.838Z,9.57
2019-05-23T08:51:09.259Z,8.47
2019-05-23T08:53:40.215Z,5.13
2019-05-23T08:56:18.814Z,14.37
2019-05-23T08:58:43.426Z,17.23
2019-05-23T09:01:13.981Z,22.87
2019-05-23T09:03:44.773Z,9.73
2019-05-23T09:06:15.562Z,11.13
2019-05-23T09:08:46.699Z,13.63
2019-05-23T09:11:19.409Z,10.83
2019-05-23T09:13:49.953Z,19.10
2019-05-23T09:16:21.085Z,11.60
2019-05-23T09:18:51.699Z,9.53
2019-05-23T09:21:22.359Z,12.03
2019-05-23T09:23:52.734Z,7.73
2019-05-23T09:26:23.553Z,21.83
2019-05-23T09:28:53.948Z,7.43
2019-05-23T09:31:24.648Z,13.13
2019-05-23T09:33:55.299Z,18.30
2019-05-23T09:36:26.025Z,12.03
2019-05-23T09:38:56.442Z,18.60
2019-05-23T09:41:26.874Z,11.80
2019-05-23T09:43:57.394Z,13.00
2019-05-23T09:46:27.954Z,9.20
2019-05-23T09:48:58.439Z,27.40
2019-05-23T09:51:29.193Z,15.73
2019-05-23T09:53:59.819Z,17.97
2019-05-23T09:56:31.518Z,22.97
2019-05-23T09:59:02.105Z,10.90
2019-05-23T10:01:32.854Z,8.23
2019-05-23T10:04:04.424Z,12.60
2019-05-23T10:06:35.050Z,15.63
2019-05-23T10:09:07.627Z,27.43
2019-05-23T10:11:38.256Z,25.70
2019-05-23T10:14:14.784Z,17.73
2019-05-23T10:16:45.865Z,8.80
2019-05-23T10:19:16.598Z,18.43
2019-05-23T10:21:47.567Z,28.37
2019-05-23T10:24:19.534Z,24.67
2019-05-23T10:26:50.029Z,14.43
2019-05-23T10:29:20.689Z,23.17
2019-05-23T10:31:51.101Z,25.30
2019-05-23T10:34:21.724Z,27.67
2019-05-23T10:36:52.480Z,50.47
2019-05-23T10:39:23.319Z,23.80
2019-05-23T10:41:54.131Z,19.43
2019-05-23T10:44:24.604Z,25.97
2019-05-23T10:46:55.169Z,15.13
2019-05-23T10:49:25.636Z,14.87
2019-05-23T10:51:56.087Z,19.57
2019-05-23T10:54:26.513Z,17.57
2019-05-23T10:56:57.128Z,20.90
2019-05-23T10:59:28.285Z,15.47
2019-05-23T11:01:58.671Z,18.03
2019-05-23T11:04:29.189Z,19.47
2019-05-23T11:07:01.315Z,25.73
2019-05-23T11:09:38.060Z,23.33
2019-05-23T11:12:06.052Z,19.93
2019-05-23T11:14:36.894Z,22.33
2019-05-23T11:17:08.258Z,18.60
2019-05-23T11:19:38.818Z,7.17
2019-05-23T11:22:11.339Z,7.70
2019-05-23T11:24:42.089Z,13.70
2019-05-23T11:27:12.762Z,18.80
2019-05-23T11:29:43.374Z,14.43
2019-05-23T11:32:19.260Z,18.43
2019-05-23T11:34:55.223Z,28.57
2019-05-23T11:37:26.041Z,22.90
2019-05-23T11:39:56.811Z,29.23
2019-05-23T11:42:27.224Z,22.93
2019-05-23T11:44:58.819Z,30.40
2019-05-23T11:47:31.993Z,22.87
2019-05-23T11:50:02.176Z,21.17
2019-05-23T11:52:32.698Z,26.97
2019-05-23T11:55:03.615Z,20.57
2019-05-23T11:57:37.476Z,19.40
2019-05-23T12:00:10.011Z,17.40
2019-05-23T12:02:42.524Z,16.23
2019-05-23T12:05:20.420Z,15.57
2019-05-23T12:07:51.203Z,16.33
2019-05-23T12:10:21.840Z,16.90
2019-05-23T12:12:52.224Z,15.27
2019-05-23T12:15:27.506Z,14.30
2019-05-23T12:17:58.554Z,17.53
2019-05-23T12:20:29.325Z,14.10
2019-05-23T12:22:59.918Z,20.37
2019-05-23T12:25:31.253Z,16.50
2019-05-23T12:28:01.684Z,17.43
2019-05-23T12:30:33.219Z,19.53
2019-05-23T12:33:03.734Z,27.13
2019-05-23T12:35:34.253Z,20.43
2019-05-23T12:38:05.288Z,27.73
2019-05-23T12:40:36.275Z,27.73
2019-05-23T12:43:06.854Z,28.30
2019-05-23T12:45:37.439Z,27.17
2019-05-23T12:48:14.371Z,28.07
2019-05-23T12:50:46.078Z,29.63
2019-05-23T12:53:18.272Z,25.47
2019-05-23T12:55:48.901Z,29.07
2019-05-23T12:58:20.151Z,29.70
2019-05-23T13:00:54.074Z,31.73
2019-05-23T13:03:24.889Z,24.57
2019-05-23T13:05:55.518Z,25.80
2019-05-23T13:08:26.186Z,17.20
2019-05-23T13:10:56.679Z,22.63
2019-05-23T13:13:27.926Z,19.37
2019-05-23T13:15:58.468Z,8.70
2019-05-23T13:18:28.852Z,11.17
2019-05-23T13:21:00.006Z,16.13
2019-05-23T13:23:31.190Z,16.27
2019-05-23T13:26:03.184Z,22.30
2019-05-23T13:28:33.632Z,12.63
2019-05-23T13:31:04.255Z,25.47
2019-05-23T13:33:34.648Z,17.70
2019-05-23T13:36:05.429Z,18.00
2019-05-23T13:38:36.043Z,17.80
2019-05-23T13:41:07.659Z,16.23
2019-05-23T13:43:38.186Z,17.17
2019-05-23T13:46:09.206Z,18.90
2019-05-23T13:48:40.173Z,16.53
2019-05-23T13:51:10.797Z,14.30
2019-05-23T13:53:41.441Z,14.67
2019-05-23T13:56:11.864Z,17.83
2019-05-23T13:58:42.462Z,15.97
2019-05-23T14:01:13.290Z,18.87
2019-05-23T14:03:44.107Z,21.77
2019-05-23T14:06:14.632Z,31.60
2019-05-23T14:08:45.035Z,24.20
2019-05-23T14:11:15.815Z,24.20
2019-05-23T14:13:46.710Z,21.57
2019-05-23T14:16:17.761Z,36.60
2019-05-23T14:18:48.170Z,27.53
2019-05-23T14:21:18.567Z,24.60
2019-05-23T14:23:49.169Z,35.47
2019-05-23T14:26:20.553Z,22.47
2019-05-23T14:28:51.121Z,33.40
2019-05-23T14:31:23.906Z,24.23
2019-05-23T14:34:00.439Z,25.47
2019-05-23T14:36:41.743Z,32.73
2019-05-23T14:39:34.624Z,38.20
2019-05-23T14:42:31.967Z,29.40
2019-05-23T14:45:02.741Z,30.50
2019-05-23T14:47:44.905Z,28.33
2019-05-23T14:50:38.366Z,38.27
2019-05-23T14:53:11.763Z,26.63
2019-05-23T14:55:42.552Z,25.90
2019-05-23T14:58:13.707Z,19.90
2019-05-23T15:00:45.446Z,23.47
2019-05-23T15:03:15.971Z,18.23
2019-05-23T15:05:46.787Z,21.30
2019-05-23T15:08:17.420Z,20.30
2019-05-23T15:10:48.184Z,20.47
2019-05-23T15:13:18.741Z,18.27
2019-05-23T15:15:49.670Z,19.13
2019-05-23T15:18:20.219Z,18.27
2019-05-23T15:20:51.110Z,18.60
2019-05-23T15:23:21.827Z,19.97
2019-05-23T15:25:52.842Z,19.97
2019-05-23T15:28:23.509Z,20.27
2019-05-23T15:30:54.071Z,21.63
2019-05-23T15:33:24.666Z,20.77
2019-05-23T15:35:55.369Z,21.73
2019-05-23T15:38:27.234Z,23.40
2019-05-23T15:40:57.920Z,22.93
2019-05-23T15:43:28.520Z,24.17
2019-05-23T15:45:58.978Z,22.23
2019-05-23T15:48:29.543Z,23.93
2019-05-23T15:51:00.195Z,23.97
2019-05-23T15:53:47.696Z,24.50
2019-05-23T15:56:28.879Z,25.00
2019-05-23T15:59:15.338Z,24.17
2019-05-23T16:01:53.749Z,22.13
2019-05-23T16:04:24.721Z,25.10
2019-05-23T16:06:55.937Z,23.90
2019-05-23T16:09:31.059Z,28.57
2019-05-23T16:12:01.868Z,21.80
2019-05-23T16:14:32.619Z,22.43
2019-05-23T16:17:03.264Z,21.00
2019-05-23T16:19:33.976Z,21.17
2019-05-23T16:22:05.329Z,20.93
2019-05-23T16:24:37.831Z,19.10
2019-05-23T16:27:09.117Z,19.37
2019-05-23T16:29:40.596Z,18.80
2019-05-23T16:32:11.082Z,17.63
2019-05-23T16:34:41.806Z,17.57
2019-05-23T16:37:12.758Z,17.23
2019-05-23T16:39:48.728Z,17.07
2019-05-23T16:42:16.174Z,17.90
2019-05-23T16:44:46.623Z,18.27
2019-05-23T16:47:17.155Z,17.17
2019-05-23T16:49:47.738Z,17.03
2019-05-23T16:52:18.335Z,19.13
2019-05-23T16:54:51.597Z,18.50
2019-05-23T16:57:31.627Z,17.33
2019-05-23T17:00:16.996Z,16.90
2019-05-23T17:02:58.975Z,17.83
2019-05-23T17:05:51.243Z,16.97
2019-05-23T17:08:43.367Z,16.27
2019-05-23T17:11:35.769Z,17.23
2019-05-23T17:14:14.681Z,16.73
2019-05-23T17:16:51.159Z,18.00
2019-05-23T17:19:39.791Z,18.73
2019-05-23T17:22:38.554Z,19.50
2019-05-23T17:25:34.290Z,18.67
2019-05-23T17:28:09.089Z,18.60
2019-05-23T17:30:49.961Z,18.50
2019-05-23T17:33:21.557Z,17.80
2019-05-23T17:35:52.083Z,18.67
2019-05-23T17:38:22.888Z,19.17
2019-05-23T17:40:53.984Z,19.40
2019-05-23T17:43:24.480Z,18.70
2019-05-23T17:45:55.128Z,18.87
2019-05-23T17:48:25.750Z,19.27
2019-05-23T17:50:56.259Z,19.27
2019-05-23T17:53:27.308Z,19.50
2019-05-23T17:55:58.354Z,20.80
2019-05-23T17:58:28.925Z,22.50
2019-05-23T18:00:59.936Z,20.80
2019-05-23T18:03:30.971Z,24.23
2019-05-23T18:06:02.714Z,21.77
2019-05-23T18:08:33.716Z,21.57
2019-05-23T18:11:04.418Z,22.20
2019-05-23T18:13:35.567Z,23.13
2019-05-23T18:16:06.740Z,21.80
2019-05-23T18:18:37.247Z,29.23
2019-05-23T18:21:09.284Z,22.30
2019-05-23T18:23:40.531Z,22.90
2019-05-23T18:26:11.659Z,23.33
2019-05-23T18:28:42.399Z,25.10
2019-05-23T18:31:17.409Z,24.20
2019-05-23T18:33:48.542Z,24.80
2019-05-23T18:36:19.813Z,22.47
2019-05-23T18:38:50.543Z,22.33
2019-05-23T18:41:21.420Z,22.23
2019-05-23T18:43:52.512Z,21.57
2019-05-23T18:46:41.257Z,20.57
2019-05-23T18:49:14.563Z,21.23
2019-05-23T18:51:45.484Z,21.90
2019-05-23T18:54:16.199Z,25.53
2019-05-23T18:56:47.126Z,20.60
2019-05-23T18:59:36.090Z,20.87
2019-05-23T19:02:07.056Z,23.87
2019-05-23T19:04:38.046Z,20.23
2019-05-23T19:07:27.621Z,20.90
2019-05-23T19:10:33.832Z,20.57
2019-05-23T19:13:22.273Z,21.83
2019-05-23T19:15:52.809Z,22.73
2019-05-23T19:18:24.350Z,21.03
2019-05-23T19:21:12.780Z,20.17
2019-05-23T19:24:01.700Z,21.63
2019-05-23T19:26:32.931Z,19.87
2019-05-23T19:29:04.008Z,18.57
2019-05-23T19:31:52.158Z,22.67
2019-05-23T19:34:23.084Z,19.60
2019-05-23T19:37:18.354Z,19.20
2019-05-23T19:39:49.063Z,18.37
2019-05-23T19:42:41.190Z,19.27
2019-05-23T19:45:12.263Z,22.03
2019-05-23T19:47:43.280Z,19.73
2019-05-23T19:50:14.756Z,18.90
2019-05-23T19:53:20.916Z,22.23
2019-05-23T19:56:09.344Z,20.57
2019-05-23T19:59:15.378Z,17.73
2019-05-23T20:02:07.811Z,19.97
2019-05-23T20:04:41.738Z,21.10
2019-05-23T20:07:15.633Z,22.43
2019-05-23T20:09:48.478Z,20.27
2019-05-23T20:12:19.470Z,20.47
2019-05-23T20:14:50.391Z,21.50
2019-05-23T20:17:21.646Z,19.00
2019-05-23T20:19:52.852Z,23.87
2019-05-23T20:22:23.285Z,19.87
2019-05-23T20:25:12.076Z,16.27
2019-05-23T20:27:42.721Z,17.40
2019-05-23T20:30:20.662Z,16.37
2019-05-23T20:32:51.544Z,19.47
2019-05-23T20:35:22.446Z,17.50
2019-05-23T20:38:11.541Z,15.20
2019-05-23T20:40:59.994Z,17.20
2019-05-23T20:43:31.139Z,18.57
2019-05-23T20:46:19.648Z,16.17
2019-05-23T20:48:50.500Z,18.23
2019-05-23T20:51:39.871Z,15.47
2019-05-23T20:54:10.518Z,18.60
2019-05-23T20:56:41.489Z,16.40
2019-05-23T20:59:30.098Z,17.03
2019-05-23T21:02:00.573Z,17.13
2019-05-23T21:04:31.880Z,14.83
2019-05-23T21:07:02.305Z,16.53
2019-05-23T21:09:33.201Z,17.37
2019-05-23T21:12:04.223Z,14.43
2019-05-23T21:14:34.882Z,14.87
2019-05-23T21:17:05.860Z,18.47
2019-05-23T21:19:36.653Z,22.17
2019-05-23T21:22:25.499Z,21.93
2019-05-23T21:25:13.579Z,25.20
2019-05-23T21:27:44.135Z,21.93
2019-05-23T21:30:14.737Z,24.63
2019-05-23T21:32:45.510Z,23.97
2019-05-23T21:35:16.017Z,25.27
2019-05-23T21:37:46.620Z,21.40
2019-05-23T21:40:37.466Z,26.27
2019-05-23T21:43:08.268Z,21.90
2019-05-23T21:45:38.740Z,20.73
2019-05-23T21:48:27.260Z,22.03
2019-05-23T21:50:58.128Z,20.00
2019-05-23T21:53:28.674Z,23.80
2019-05-23T21:56:17.163Z,20.30
2019-05-23T21:59:05.966Z,21.23
2019-05-23T22:02:07.720Z,21.70
2019-05-23T22:05:06.094Z,21.70
2019-05-23T22:07:36.943Z,26.10
2019-05-23T22:10:07.998Z,18.30
2019-05-23T22:13:04.365Z,19.73
2019-05-23T22:15:46.021Z,17.97
2019-05-23T22:18:16.858Z,18.03
2019-05-23T22:20:47.480Z,18.73
2019-05-23T22:23:35.662Z,17.57
2019-05-23T22:26:24.250Z,20.33
2019-05-23T22:28:54.761Z,17.17
2019-05-23T22:31:26.851Z,18.07
2019-05-23T22:34:04.894Z,15.93
2019-05-23T22:36:41.151Z,20.37
2019-05-23T22:39:11.647Z,17.87
2019-05-23T22:42:18.949Z,19.63
2019-05-23T22:44:49.485Z,20.37
2019-05-23T22:47:20.085Z,21.90
2019-05-23T22:49:50.629Z,20.27
2019-05-23T22:52:38.706Z,14.77
2019-05-23T22:55:09.382Z,17.40
2019-05-23T22:57:57.749Z,16.43
2019-05-23T23:00:47.792Z,15.70
2019-05-23T23:03:18.479Z,15.27
2019-05-23T23:05:48.997Z,16.73
2019-05-23T23:08:20.747Z,14.57
2019-05-23T23:11:10.131Z,14.87
2019-05-23T23:13:58.458Z,14.73
2019-05-23T23:16:28.859Z,12.27
2019-05-23T23:18:59.523Z,12.70
2019-05-23T23:21:30.296Z,14.33
2019-05-23T23:24:00.820Z,12.63
2019-05-23T23:26:31.290Z,11.10
2019-05-23T23:29:01.681Z,10.73
2019-05-23T23:31:32.194Z,12.37
2019-05-23T23:34:02.619Z,12.30
2019-05-23T23:36:33.253Z,9.97
2019-05-23T23:39:05.600Z,9.77
2019-05-23T23:41:36.071Z,9.77
2019-05-23T23:44:25.259Z,11.60
2019-05-23T23:47:13.914Z,9.80
2019-05-23T23:50:02.142Z,10.57
2019-05-23T23:53:26.331Z,8.57
2019-05-23T23:56:32.477Z,8.73
2019-05-23T23:59:20.675Z,8.53
